createdAt,value
2023-05-19T00:00:10.626Z,5.82
2023-05-19T00:02:44.148Z,6.15
2023-05-19T00:05:15.209Z,5.40
2023-05-19T00:07:45.028Z,5.93
2023-05-19T00:10:16.503Z,5.68
2023-05-19T00:12:45.785Z,5.30
2023-05-19T00:15:15.184Z,5.13
2023-05-19T00:17:43.581Z,5.30
2023-05-19T00:20:13.160Z,6.10
2023-05-19T00:22:44.142Z,5.60
2023-05-19T00:25:12.485Z,5.85
2023-05-19T00:27:42.182Z,5.25
2023-05-19T00:30:11.077Z,5.90
2023-05-19T00:32:39.470Z,5.13
2023-05-19T00:35:08.821Z,5.47
2023-05-19T00:37:37.229Z,5.28
2023-05-19T00:40:06.786Z,5.10
2023-05-19T00:42:35.377Z,5.78
2023-05-19T00:45:05.698Z,4.68
2023-05-19T00:47:34.264Z,5.63
2023-05-19T00:50:02.624Z,5.10
2023-05-19T00:52:30.986Z,4.53
2023-05-19T00:54:59.429Z,4.07
2023-05-19T00:57:28.180Z,5.07
2023-05-19T00:59:56.775Z,4.82
2023-05-19T01:02:26.740Z,4.70
2023-05-19T01:04:56.333Z,5.50
2023-05-19T01:07:25.480Z,5.03
2023-05-19T01:09:53.885Z,5.40
2023-05-19T01:12:22.239Z,5.72
2023-05-19T01:14:50.675Z,5.05
2023-05-19T01:17:27.700Z,4.97
2023-05-19T01:20:06.658Z,5.00
2023-05-19T01:23:06.363Z,5.88
2023-05-19T01:26:03.868Z,5.10
2023-05-19T01:29:23.360Z,5.07
2023-05-19T01:31:56.686Z,5.03
2023-05-19T01:34:27.448Z,4.95
2023-05-19T01:36:56.985Z,5.68
2023-05-19T01:39:26.264Z,5.05
2023-05-19T01:41:56.118Z,4.97
2023-05-19T01:44:25.627Z,5.00
2023-05-19T01:46:56.318Z,4.78
2023-05-19T01:49:25.266Z,5.00
2023-05-19T01:51:54.256Z,4.70
2023-05-19T01:54:23.929Z,4.80
2023-05-19T01:57:01.413Z,5.63
2023-05-19T01:59:43.111Z,5.53
2023-05-19T02:02:22.297Z,5.45
2023-05-19T02:04:58.673Z,6.07
2023-05-19T02:07:33.146Z,5.25
2023-05-19T02:10:07.597Z,5.35
2023-05-19T02:12:38.120Z,4.82
2023-05-19T02:15:08.934Z,5.13
2023-05-19T02:17:42.632Z,5.07
2023-05-19T02:20:12.289Z,5.78
2023-05-19T02:22:41.092Z,5.13
2023-05-19T02:25:10.152Z,5.90
2023-05-19T02:27:39.636Z,5.63
2023-05-19T02:30:09.968Z,5.68
2023-05-19T02:32:40.150Z,5.80
2023-05-19T02:35:09.168Z,5.43
2023-05-19T02:37:37.554Z,5.68
2023-05-19T02:40:07.020Z,6.15
2023-05-19T02:42:35.441Z,5.43
2023-05-19T02:45:03.948Z,5.65
2023-05-19T02:47:33.187Z,5.65
2023-05-19T02:50:03.871Z,5.43
2023-05-19T02:52:32.233Z,6.13
2023-05-19T02:55:00.637Z,6.30
2023-05-19T02:57:31.708Z,5.95
2023-05-19T03:00:00.313Z,6.00
2023-05-19T03:02:28.836Z,5.90
2023-05-19T03:04:58.001Z,6.20
2023-05-19T03:07:27.929Z,6.30
2023-05-19T03:09:56.361Z,5.87
2023-05-19T03:12:24.711Z,6.07
2023-05-19T03:14:53.153Z,6.03
2023-05-19T03:17:21.616Z,5.63
2023-05-19T03:19:51.197Z,7.00
2023-05-19T03:22:21.050Z,6.07
2023-05-19T03:24:54.442Z,6.23
2023-05-19T03:27:22.944Z,6.37
2023-05-19T03:29:52.969Z,6.57
2023-05-19T03:32:21.508Z,6.20
2023-05-19T03:34:50.051Z,6.13
2023-05-19T03:37:18.629Z,6.47
2023-05-19T03:39:46.920Z,6.90
2023-05-19T03:42:17.251Z,6.90
2023-05-19T03:44:45.924Z,6.23
2023-05-19T03:47:14.645Z,6.93
2023-05-19T03:50:10.119Z,6.70
2023-05-19T03:52:53.746Z,7.47
2023-05-19T03:55:33.939Z,6.77
2023-05-19T03:58:03.371Z,6.97
2023-05-19T04:00:31.984Z,7.93
2023-05-19T04:03:01.023Z,7.33
2023-05-19T04:05:29.150Z,7.20
2023-05-19T04:07:57.179Z,6.77
2023-05-19T04:10:25.266Z,7.23
2023-05-19T04:12:55.639Z,7.17
2023-05-19T04:15:25.159Z,6.90
2023-05-19T04:17:53.222Z,6.77
2023-05-19T04:20:21.441Z,7.23
2023-05-19T04:22:49.509Z,6.97
2023-05-19T04:25:19.983Z,7.20
2023-05-19T04:27:48.296Z,6.63
2023-05-19T04:30:22.221Z,6.40
2023-05-19T04:32:52.114Z,7.40
2023-05-19T04:35:20.479Z,7.63
2023-05-19T04:37:49.552Z,7.87
2023-05-19T04:40:21.173Z,7.67
2023-05-19T04:42:49.831Z,7.60
2023-05-19T04:45:18.021Z,7.40
2023-05-19T04:47:49.661Z,7.33
2023-05-19T04:50:19.259Z,7.40
2023-05-19T04:52:47.358Z,8.73
2023-05-19T04:55:16.110Z,7.70
2023-05-19T04:57:44.904Z,7.80
2023-05-19T05:00:14.530Z,7.83
2023-05-19T05:02:57.654Z,8.20
2023-05-19T05:05:29.018Z,8.33
2023-05-19T05:07:57.461Z,8.83
2023-05-19T05:10:28.276Z,9.23
2023-05-19T05:12:57.001Z,9.50
2023-05-19T05:15:28.609Z,9.00
2023-05-19T05:17:58.101Z,9.43
2023-05-19T05:20:28.887Z,9.17
2023-05-19T05:22:58.799Z,9.27
2023-05-19T05:25:28.338Z,9.23
2023-05-19T05:27:56.389Z,9.40
2023-05-19T05:30:24.933Z,8.63
2023-05-19T05:32:54.228Z,8.50
2023-05-19T05:35:33.848Z,8.52
2023-05-19T05:38:02.782Z,8.65
2023-05-19T05:40:31.246Z,7.82
2023-05-19T05:43:00.008Z,8.07
2023-05-19T05:45:31.630Z,7.68
2023-05-19T05:48:02.377Z,6.80
2023-05-19T05:50:34.168Z,7.30
2023-05-19T05:53:04.755Z,6.32
2023-05-19T05:55:34.773Z,6.65
2023-05-19T05:58:03.651Z,5.93
2023-05-19T06:00:33.484Z,6.28
2023-05-19T06:03:03.140Z,5.85
2023-05-19T06:05:33.588Z,5.50
2023-05-19T06:08:01.687Z,5.90
2023-05-19T06:10:30.034Z,5.90
2023-05-19T06:12:58.261Z,5.88
2023-05-19T06:15:27.331Z,4.85
2023-05-19T06:18:10.056Z,5.43
2023-05-19T06:20:39.525Z,5.03
2023-05-19T06:23:07.872Z,4.72
2023-05-19T06:25:37.095Z,5.00
2023-05-19T06:28:06.527Z,4.53
2023-05-19T06:30:34.939Z,5.28
2023-05-19T06:33:13.708Z,4.78
2023-05-19T06:35:43.746Z,4.30
2023-05-19T06:38:11.915Z,4.25
2023-05-19T06:40:40.030Z,3.88
2023-05-19T06:43:08.107Z,3.67
2023-05-19T06:45:54.399Z,3.85
2023-05-19T06:48:23.713Z,4.05
2023-05-19T06:50:53.229Z,3.20
2023-05-19T06:53:21.850Z,3.75
2023-05-19T06:55:58.721Z,3.83
2023-05-19T06:58:30.104Z,3.33
2023-05-19T07:00:59.764Z,3.28
2023-05-19T07:03:32.651Z,3.15
2023-05-19T07:06:02.493Z,3.60
2023-05-19T07:08:30.622Z,3.00
2023-05-19T07:11:01.723Z,3.10
2023-05-19T07:13:30.188Z,3.40
2023-05-19T07:15:58.699Z,2.92
2023-05-19T07:18:31.836Z,2.80
2023-05-19T07:21:00.247Z,3.05
2023-05-19T07:23:29.879Z,3.10
2023-05-19T07:25:58.006Z,2.83
2023-05-19T07:28:26.102Z,3.20
2023-05-19T07:30:54.225Z,2.78
2023-05-19T07:33:22.289Z,3.20
2023-05-19T07:35:50.426Z,2.70
2023-05-19T07:38:18.508Z,2.85
2023-05-19T07:40:47.956Z,3.00
2023-05-19T07:43:16.034Z,2.85
2023-05-19T07:45:44.125Z,2.60
2023-05-19T07:48:12.249Z,2.65
2023-05-19T07:50:40.426Z,3.00
2023-05-19T07:53:08.524Z,2.70
2023-05-19T07:55:36.558Z,2.70
2023-05-19T07:58:06.055Z,2.58
2023-05-19T08:00:34.312Z,2.50
2023-05-19T08:03:03.174Z,2.60
2023-05-19T08:05:31.344Z,2.75
2023-05-19T08:07:59.378Z,2.42
2023-05-19T08:10:27.414Z,2.75
2023-05-19T08:12:55.512Z,2.85
2023-05-19T08:15:25.480Z,2.67
2023-05-19T08:17:53.552Z,2.70
2023-05-19T08:20:22.808Z,2.47
2023-05-19T08:22:51.156Z,2.33
2023-05-19T08:25:19.877Z,3.00
2023-05-19T08:27:47.976Z,2.80
2023-05-19T08:30:16.264Z,2.60
2023-05-19T08:32:45.735Z,2.60
2023-05-19T08:35:13.835Z,2.95
2023-05-19T08:37:42.250Z,2.70
2023-05-19T08:40:17.028Z,2.75
2023-05-19T08:42:45.422Z,2.60
2023-05-19T08:45:13.656Z,2.67
2023-05-19T08:47:43.185Z,2.78
2023-05-19T08:50:14.259Z,2.40
2023-05-19T08:52:52.997Z,2.90
2023-05-19T08:55:31.166Z,2.85
2023-05-19T08:57:59.987Z,2.60
2023-05-19T09:00:29.588Z,2.72
2023-05-19T09:03:05.906Z,3.15
2023-05-19T09:05:41.370Z,2.83
2023-05-19T09:08:10.789Z,2.60
2023-05-19T09:10:38.848Z,2.60
2023-05-19T09:13:07.371Z,2.65
2023-05-19T09:15:37.051Z,2.55
2023-05-19T09:18:08.988Z,2.88
2023-05-19T09:20:43.401Z,3.00
2023-05-19T09:23:16.110Z,2.60
2023-05-19T09:25:54.483Z,2.90
2023-05-19T09:28:26.742Z,2.50
2023-05-19T09:31:02.415Z,2.88
2023-05-19T09:33:31.143Z,3.20
2023-05-19T09:36:00.721Z,2.85
2023-05-19T09:38:29.616Z,2.78
2023-05-19T09:40:58.893Z,2.83
2023-05-19T09:43:29.068Z,2.67
2023-05-19T09:46:01.569Z,3.28
2023-05-19T09:48:30.466Z,2.83
2023-05-19T09:51:01.422Z,3.72
2023-05-19T09:53:31.300Z,2.92
2023-05-19T09:55:59.913Z,2.90
2023-05-19T09:58:28.231Z,2.70
2023-05-19T10:01:17.332Z,2.42
2023-05-19T10:03:50.538Z,2.97
2023-05-19T10:06:48.457Z,2.38
2023-05-19T10:09:18.238Z,3.30
2023-05-19T10:11:47.280Z,2.92
2023-05-19T10:14:16.628Z,3.03
2023-05-19T10:16:50.530Z,2.75
2023-05-19T10:19:21.616Z,3.05
2023-05-19T10:21:55.230Z,2.85
2023-05-19T10:24:25.675Z,2.70
2023-05-19T10:26:59.617Z,3.20
2023-05-19T10:29:30.680Z,2.83
2023-05-19T10:32:07.374Z,3.05
2023-05-19T10:34:59.272Z,3.08
2023-05-19T10:37:38.832Z,3.05
2023-05-19T10:40:11.621Z,2.92
2023-05-19T10:42:51.195Z,2.83
2023-05-19T10:45:23.601Z,2.90
2023-05-19T10:47:52.521Z,2.70
2023-05-19T10:50:21.891Z,2.90
2023-05-19T10:52:59.877Z,2.80
2023-05-19T10:55:46.025Z,2.60
2023-05-19T10:58:14.219Z,3.15
2023-05-19T11:00:42.658Z,2.95
2023-05-19T11:03:16.286Z,3.25
2023-05-19T11:05:45.398Z,3.05
2023-05-19T11:08:14.991Z,3.13
2023-05-19T11:10:46.154Z,2.55
2023-05-19T11:13:23.175Z,2.92
2023-05-19T11:15:51.385Z,2.80
2023-05-19T11:18:20.702Z,2.92
2023-05-19T11:20:58.066Z,3.08
2023-05-19T11:23:27.726Z,2.72
2023-05-19T11:25:55.869Z,3.28
2023-05-19T11:28:28.068Z,2.55
2023-05-19T11:30:57.726Z,3.25
2023-05-19T11:33:27.887Z,3.75
2023-05-19T11:35:58.146Z,3.05
2023-05-19T11:38:30.251Z,3.60
2023-05-19T11:40:58.652Z,3.83
2023-05-19T11:43:27.103Z,3.58
2023-05-19T11:45:56.232Z,3.08
2023-05-19T11:48:25.863Z,3.60
2023-05-19T11:50:54.248Z,4.05
2023-05-19T11:53:22.511Z,3.03
2023-05-19T11:55:52.342Z,3.10
2023-05-19T11:58:27.842Z,3.03
2023-05-19T12:00:56.638Z,3.63
2023-05-19T12:03:28.101Z,3.13
2023-05-19T12:05:56.657Z,3.30
2023-05-19T12:08:25.670Z,3.50
2023-05-19T12:10:56.239Z,3.40
2023-05-19T12:13:24.531Z,3.30
2023-05-19T12:15:53.471Z,3.58
2023-05-19T12:18:21.709Z,3.70
2023-05-19T12:20:50.005Z,3.28
2023-05-19T12:23:18.375Z,2.80
2023-05-19T12:25:46.560Z,3.28
2023-05-19T12:28:17.678Z,3.33
2023-05-19T12:30:50.322Z,3.15
2023-05-19T12:33:18.879Z,3.20
2023-05-19T12:35:47.766Z,3.28
2023-05-19T12:38:16.428Z,3.40
2023-05-19T12:40:46.353Z,3.10
2023-05-19T12:43:22.485Z,3.78
2023-05-19T12:45:50.727Z,3.42
2023-05-19T12:48:23.827Z,4.10
2023-05-19T12:50:54.323Z,3.83
2023-05-19T12:53:22.467Z,3.60
2023-05-19T12:55:53.943Z,3.35
2023-05-19T12:58:24.224Z,2.95
2023-05-19T13:00:52.830Z,3.78
2023-05-19T13:03:22.208Z,2.88
2023-05-19T13:05:52.089Z,3.28
2023-05-19T13:08:21.604Z,3.88
2023-05-19T13:10:50.227Z,3.28
2023-05-19T13:13:18.695Z,3.40
2023-05-19T13:15:49.622Z,3.35
2023-05-19T13:18:18.243Z,3.55
2023-05-19T13:20:49.158Z,3.00
2023-05-19T13:23:18.670Z,3.65
2023-05-19T13:25:47.003Z,3.30
2023-05-19T13:28:15.158Z,3.40
2023-05-19T13:30:44.977Z,3.03
2023-05-19T13:33:14.530Z,3.33
2023-05-19T13:35:42.609Z,3.65
2023-05-19T13:38:11.419Z,3.25
2023-05-19T13:40:39.691Z,3.30
2023-05-19T13:43:08.798Z,3.85
2023-05-19T13:45:37.129Z,3.90
2023-05-19T13:48:07.287Z,3.40
2023-05-19T13:50:36.989Z,3.40
2023-05-19T13:53:05.224Z,3.20
2023-05-19T13:55:33.826Z,3.05
2023-05-19T13:58:02.430Z,3.20
2023-05-19T14:00:31.673Z,3.78
2023-05-19T14:03:00.448Z,3.10
2023-05-19T14:05:29.113Z,3.20
2023-05-19T14:08:00.533Z,3.22
2023-05-19T14:10:28.640Z,2.97
2023-05-19T14:15:38.218Z,3.25
2023-05-19T14:18:07.102Z,3.45
2023-05-19T14:20:36.046Z,3.50
2023-05-19T14:23:05.879Z,3.47
2023-05-19T14:25:33.978Z,3.22
2023-05-19T14:28:02.447Z,3.47
2023-05-19T14:30:30.576Z,3.25
2023-05-19T14:32:58.693Z,3.22
2023-05-19T14:35:27.360Z,3.10
2023-05-19T14:37:55.448Z,3.25
2023-05-19T14:40:24.883Z,3.60
2023-05-19T14:42:52.964Z,4.35
2023-05-19T14:45:21.119Z,3.40
2023-05-19T14:47:49.181Z,3.28
2023-05-19T14:50:17.384Z,3.30
2023-05-19T14:52:45.480Z,3.55
2023-05-19T14:55:13.556Z,4.03
2023-05-19T14:57:42.989Z,4.15
2023-05-19T15:00:12.169Z,3.72
2023-05-19T15:02:40.226Z,3.85
2023-05-19T15:05:08.942Z,3.30
2023-05-19T15:07:37.266Z,3.40
2023-05-19T15:10:06.024Z,3.33
2023-05-19T15:12:34.091Z,3.40
2023-05-19T15:15:03.949Z,3.20
2023-05-19T15:17:32.083Z,2.90
2023-05-19T15:20:00.254Z,2.85
2023-05-19T15:22:28.323Z,3.20
2023-05-19T15:24:56.436Z,3.72
2023-05-19T15:27:24.616Z,3.65
2023-05-19T15:29:52.698Z,3.80
2023-05-19T15:32:22.133Z,3.22
2023-05-19T15:34:50.292Z,3.03
2023-05-19T15:37:18.369Z,3.03
2023-05-19T15:39:46.468Z,3.60
2023-05-19T15:42:14.529Z,3.38
2023-05-19T15:44:42.712Z,3.15
2023-05-19T15:47:10.781Z,3.30
2023-05-19T15:49:40.248Z,2.85
2023-05-19T15:52:08.472Z,2.92
2023-05-19T15:54:36.529Z,3.38
2023-05-19T15:57:04.787Z,3.00
2023-05-19T15:59:32.874Z,3.28
2023-05-19T16:02:01.135Z,2.80
2023-05-19T16:04:29.285Z,3.28
2023-05-19T16:06:58.913Z,3.10
2023-05-19T16:09:27.024Z,2.90
2023-05-19T16:11:55.032Z,3.30
2023-05-19T16:14:23.218Z,3.13
2023-05-19T16:16:51.438Z,2.80
2023-05-19T16:19:19.647Z,3.30
2023-05-19T16:21:47.773Z,2.70
2023-05-19T16:24:17.178Z,3.53
2023-05-19T16:26:45.413Z,2.80
2023-05-19T16:29:13.430Z,3.15
2023-05-19T16:31:41.520Z,2.88
2023-05-19T16:34:09.705Z,3.17
2023-05-19T16:36:37.722Z,2.92
2023-05-19T16:39:05.934Z,3.03
2023-05-19T16:41:35.459Z,2.92
2023-05-19T16:44:03.521Z,3.17
2023-05-19T16:46:31.845Z,2.85
2023-05-19T16:48:59.991Z,2.88
2023-05-19T16:51:28.040Z,3.03
2023-05-19T16:53:56.114Z,2.65
2023-05-19T16:56:24.187Z,3.03
2023-05-19T16:58:54.673Z,2.85
2023-05-19T17:01:22.808Z,2.95
2023-05-19T17:03:50.998Z,2.92
2023-05-19T17:06:19.085Z,3.38
2023-05-19T17:08:47.109Z,3.17
2023-05-19T17:11:15.166Z,3.10
2023-05-19T17:13:43.869Z,2.40
2023-05-19T17:16:13.288Z,2.95
2023-05-19T17:18:41.474Z,3.15
2023-05-19T17:21:09.540Z,2.75
2023-05-19T17:23:38.237Z,3.30
2023-05-19T17:26:06.474Z,3.20
2023-05-19T17:28:34.512Z,2.85
2023-05-19T17:31:03.235Z,2.90
2023-05-19T17:33:32.776Z,2.63
2023-05-19T17:36:04.482Z,2.90
2023-05-19T17:38:32.761Z,2.72
2023-05-19T17:41:01.319Z,2.70
2023-05-19T17:43:29.821Z,2.90
2023-05-19T17:45:58.886Z,3.00
2023-05-19T17:48:29.137Z,3.28
2023-05-19T17:50:58.804Z,3.08
2023-05-19T17:53:27.495Z,3.03
2023-05-19T17:56:00.505Z,2.95
2023-05-19T17:58:29.591Z,3.00
2023-05-19T18:00:58.251Z,3.10
2023-05-19T18:03:27.025Z,3.17
2023-05-19T18:05:55.860Z,2.58
2023-05-19T18:08:25.970Z,3.03
2023-05-19T18:10:56.048Z,3.25
2023-05-19T18:13:24.128Z,3.25
2023-05-19T18:15:52.830Z,2.90
2023-05-19T18:18:21.059Z,2.92
2023-05-19T18:20:49.230Z,2.92
2023-05-19T18:23:17.357Z,3.13
2023-05-19T18:25:53.310Z,2.97
2023-05-19T18:28:21.451Z,2.60
2023-05-19T18:30:59.058Z,3.17
2023-05-19T18:33:28.732Z,3.33
2023-05-19T18:35:59.128Z,3.13
2023-05-19T18:38:27.316Z,2.72
2023-05-19T18:40:57.733Z,3.50
2023-05-19T18:43:25.938Z,3.05
2023-05-19T18:45:54.041Z,2.60
2023-05-19T18:48:22.625Z,3.15
2023-05-19T18:50:50.913Z,3.05
2023-05-19T18:53:18.930Z,3.42
2023-05-19T18:55:46.992Z,3.10
2023-05-19T18:58:16.386Z,3.47
2023-05-19T19:00:44.435Z,3.10
2023-05-19T19:03:12.846Z,3.10
2023-05-19T19:05:41.019Z,3.53
2023-05-19T19:08:09.048Z,3.63
2023-05-19T19:10:40.308Z,3.20
2023-05-19T19:13:08.414Z,3.30
2023-05-19T19:15:39.689Z,3.58
2023-05-19T19:18:08.279Z,3.90
2023-05-19T19:20:36.542Z,3.75
2023-05-19T19:23:06.666Z,3.88
2023-05-19T19:25:35.135Z,3.78
2023-05-19T19:28:03.625Z,3.20
2023-05-19T19:30:32.019Z,4.05
2023-05-19T19:33:02.404Z,4.70
2023-05-19T19:35:31.199Z,3.97
2023-05-19T19:37:59.536Z,3.78
2023-05-19T19:40:27.572Z,4.38
2023-05-19T19:42:55.626Z,4.40
2023-05-19T19:45:23.684Z,4.55
2023-05-19T19:47:52.035Z,4.90
2023-05-19T19:50:21.848Z,4.20
2023-05-19T19:52:49.919Z,4.97
2023-05-19T19:55:18.027Z,4.72
2023-05-19T19:57:49.242Z,3.97
2023-05-19T20:00:18.561Z,4.43
2023-05-19T20:05:21.268Z,4.70
2023-05-19T20:07:49.313Z,4.78
2023-05-19T20:10:17.544Z,4.88
2023-05-19T20:12:47.208Z,5.15
2023-05-19T20:15:15.976Z,4.70
2023-05-19T20:17:44.160Z,5.18
2023-05-19T20:20:13.411Z,4.43
2023-05-19T20:22:44.358Z,4.72
2023-05-19T20:25:12.388Z,5.10
2023-05-19T20:27:40.538Z,5.35
2023-05-19T20:30:09.640Z,5.20
2023-05-19T20:32:37.874Z,5.10
2023-05-19T20:35:06.804Z,4.97
2023-05-19T20:37:34.859Z,4.82
2023-05-19T20:40:04.616Z,5.03
2023-05-19T20:42:32.662Z,4.93
2023-05-19T20:45:01.427Z,4.88
2023-05-19T20:47:30.547Z,5.70
2023-05-19T20:49:58.930Z,4.57
2023-05-19T20:52:26.996Z,4.88
2023-05-19T20:54:55.066Z,4.80
2023-05-19T20:57:25.662Z,5.00
2023-05-19T20:59:55.360Z,4.80
2023-05-19T21:02:23.454Z,5.13
2023-05-19T21:04:51.590Z,4.88
2023-05-19T21:07:19.757Z,5.15
2023-05-19T21:09:50.318Z,5.55
2023-05-19T21:12:20.528Z,5.25
2023-05-19T21:14:51.410Z,5.32
2023-05-19T21:17:21.119Z,5.50
2023-05-19T21:19:50.682Z,5.47
2023-05-19T21:22:19.185Z,5.25
2023-05-19T21:24:47.532Z,5.60
2023-05-19T21:27:15.833Z,5.40
2023-05-19T21:29:44.082Z,4.70
2023-05-19T21:32:14.165Z,5.20
2023-05-19T21:34:42.337Z,5.13
2023-05-19T21:37:10.457Z,5.15
2023-05-19T21:39:38.650Z,5.65
2023-05-19T21:42:07.441Z,5.50
2023-05-19T21:44:35.573Z,5.45
2023-05-19T21:47:03.931Z,5.85
2023-05-19T21:49:33.389Z,6.10
2023-05-19T21:52:01.552Z,5.20
2023-05-19T21:54:29.589Z,5.47
2023-05-19T21:56:57.666Z,5.82
2023-05-19T21:59:26.358Z,5.40
2023-05-19T22:02:16.118Z,5.38
2023-05-19T22:04:45.725Z,5.85
2023-05-19T22:07:13.739Z,5.85
2023-05-19T22:09:41.814Z,5.10
2023-05-19T22:12:09.851Z,6.00
2023-05-19T22:14:38.023Z,6.00
2023-05-19T22:17:08.817Z,5.88
2023-05-19T22:19:36.888Z,5.95
2023-05-19T22:22:13.787Z,5.72
2023-05-19T22:24:42.614Z,5.60
2023-05-19T22:27:10.986Z,5.57
2023-05-19T22:29:39.440Z,5.72
2023-05-19T22:32:11.815Z,5.30
2023-05-19T22:34:40.171Z,5.88
2023-05-19T22:37:09.687Z,5.90
2023-05-19T22:39:38.190Z,5.55
2023-05-19T22:42:06.946Z,5.57
2023-05-19T22:44:34.982Z,5.57
2023-05-19T22:47:03.041Z,6.22
2023-05-19T22:49:31.136Z,5.43
2023-05-19T22:51:59.158Z,5.72
2023-05-19T22:54:28.614Z,5.13
2023-05-19T22:56:56.707Z,5.60
2023-05-19T22:59:24.917Z,5.55
2023-05-19T23:01:53.228Z,5.35
2023-05-19T23:04:21.807Z,5.20
2023-05-19T23:06:50.520Z,5.70
2023-05-19T23:09:18.632Z,5.18
2023-05-19T23:11:48.048Z,5.80
2023-05-19T23:14:16.118Z,5.03
2023-05-19T23:16:44.187Z,5.07
2023-05-19T23:19:12.329Z,5.88
2023-05-19T23:21:40.549Z,5.20
2023-05-19T23:24:08.757Z,6.03
2023-05-19T23:26:36.837Z,5.28
2023-05-19T23:29:06.284Z,5.20
2023-05-19T23:31:34.965Z,5.03
2023-05-19T23:34:04.456Z,5.20
2023-05-19T23:36:32.570Z,5.40
2023-05-19T23:39:01.399Z,5.00
2023-05-19T23:41:29.649Z,5.70
2023-05-19T23:43:57.752Z,5.63
2023-05-19T23:46:27.406Z,4.47
2023-05-19T23:48:55.537Z,4.97
2023-05-19T23:51:23.592Z,4.93
2023-05-19T23:53:51.632Z,4.95
2023-05-19T23:56:19.673Z,4.82
2023-05-19T23:58:47.699Z,5.53
